createdAt,value
2023-05-12T00:00:49.481Z,9.85
2023-05-12T00:03:36.546Z,9.83
2023-05-12T00:06:23.465Z,9.81
2023-05-12T00:09:10.226Z,9.80
2023-05-12T00:11:56.761Z,9.74
2023-05-12T00:14:43.159Z,9.79
2023-05-12T00:17:29.527Z,9.80
2023-05-12T00:20:16.024Z,9.80
2023-05-12T00:23:02.605Z,9.78
2023-05-12T00:25:49.396Z,9.76
2023-05-12T00:28:36.021Z,9.74
2023-05-12T00:31:22.396Z,9.72
2023-05-12T00:34:08.832Z,9.72
2023-05-12T00:36:55.470Z,9.70
2023-05-12T00:39:42.316Z,9.66
2023-05-12T00:42:28.825Z,9.60
2023-05-12T00:45:15.487Z,9.60
2023-05-12T00:48:03.723Z,9.58
2023-05-12T00:50:50.534Z,9.56
2023-05-12T00:53:48.559Z,9.53
2023-05-12T00:56:39.453Z,9.48
2023-05-12T00:59:29.721Z,9.45
2023-05-12T01:02:16.446Z,9.40
2023-05-12T01:05:03.817Z,9.38
2023-05-12T01:07:50.591Z,9.37
2023-05-12T01:10:44.074Z,9.34
2023-05-12T01:13:30.557Z,9.32
2023-05-12T01:16:21.041Z,9.24
2023-05-12T01:19:10.820Z,9.25
2023-05-12T01:21:58.987Z,9.23
2023-05-12T01:24:50.378Z,9.18
2023-05-12T01:27:39.794Z,9.10
2023-05-12T01:30:28.317Z,9.11
2023-05-12T01:33:14.897Z,9.09
2023-05-12T01:36:01.845Z,9.03
2023-05-12T01:38:48.498Z,9.03
2023-05-12T01:41:34.796Z,9.01
2023-05-12T01:44:22.069Z,9.00
2023-05-12T01:47:11.212Z,8.98
2023-05-12T01:49:58.908Z,8.93
2023-05-12T01:52:46.291Z,8.89
2023-05-12T01:55:34.564Z,8.86
2023-05-12T01:58:21.817Z,8.84
2023-05-12T02:01:08.635Z,8.84
2023-05-12T02:03:56.142Z,8.82
2023-05-12T02:06:42.987Z,8.79
2023-05-12T02:09:29.500Z,8.72
2023-05-12T02:12:19.201Z,8.62
2023-05-12T02:15:06.456Z,8.56
2023-05-12T02:17:54.575Z,8.49
2023-05-12T02:20:41.756Z,8.46
2023-05-12T02:23:28.745Z,8.43
2023-05-12T02:26:15.063Z,8.39
2023-05-12T02:29:01.799Z,8.38
2023-05-12T02:31:48.205Z,8.37
2023-05-12T02:34:35.678Z,8.38
2023-05-12T02:37:22.215Z,8.38
2023-05-12T02:40:09.621Z,8.36
2023-05-12T02:42:56.050Z,8.34
2023-05-12T02:45:43.011Z,8.32
2023-05-12T02:48:29.472Z,8.33
2023-05-12T02:51:15.833Z,8.33
2023-05-12T02:54:02.498Z,8.31
2023-05-12T02:56:48.970Z,8.30
2023-05-12T02:59:35.467Z,8.28
2023-05-12T03:02:21.853Z,8.28
2023-05-12T03:05:09.260Z,8.26
2023-05-12T03:07:56.116Z,8.20
2023-05-12T03:10:44.098Z,8.22
2023-05-12T03:13:30.649Z,8.23
2023-05-12T03:16:19.748Z,8.21
2023-05-12T03:19:06.760Z,8.20
2023-05-12T03:21:53.969Z,8.20
2023-05-12T03:24:40.442Z,8.19
2023-05-12T03:27:27.344Z,8.20
2023-05-12T03:30:14.735Z,8.23
2023-05-12T03:33:01.788Z,8.29
2023-05-12T03:35:48.262Z,8.30
2023-05-12T03:38:34.836Z,8.39
2023-05-12T03:41:22.192Z,8.43
2023-05-12T03:44:10.108Z,8.51
2023-05-12T03:46:56.812Z,8.57
2023-05-12T03:49:43.348Z,8.63
2023-05-12T03:52:29.699Z,8.70
2023-05-12T03:55:16.208Z,8.77
2023-05-12T03:58:02.791Z,8.87
2023-05-12T04:00:50.267Z,8.98
2023-05-12T04:03:36.732Z,9.11
2023-05-12T04:06:23.736Z,9.22
2023-05-12T04:09:10.313Z,9.34
2023-05-12T04:11:56.956Z,9.47
2023-05-12T04:14:43.938Z,9.60
2023-05-12T04:17:30.810Z,9.75
2023-05-12T04:20:17.713Z,9.89
2023-05-12T04:23:04.206Z,10.04
2023-05-12T04:25:51.106Z,10.12
2023-05-12T04:28:37.781Z,10.29
2023-05-12T04:31:24.655Z,10.38
2023-05-12T04:34:12.121Z,10.56
2023-05-12T04:36:58.922Z,10.69
2023-05-12T04:39:45.557Z,10.81
2023-05-12T04:42:32.095Z,10.92
2023-05-12T04:45:19.443Z,11.04
2023-05-12T04:48:06.700Z,11.16
2023-05-12T04:50:53.778Z,11.28
2023-05-12T04:53:40.042Z,11.42
2023-05-12T04:56:26.358Z,11.48
2023-05-12T04:59:15.785Z,11.61
2023-05-12T05:02:02.952Z,11.74
2023-05-12T05:04:49.565Z,11.86
2023-05-12T05:07:36.055Z,11.97
2023-05-12T05:10:22.369Z,12.08
2023-05-12T05:13:08.855Z,12.19
2023-05-12T05:15:56.142Z,12.30
2023-05-12T05:18:47.616Z,12.41
2023-05-12T05:21:34.687Z,12.51
2023-05-12T05:24:20.910Z,12.62
2023-05-12T05:27:07.429Z,12.72
2023-05-12T05:29:54.387Z,12.81
2023-05-12T05:32:41.092Z,12.87
2023-05-12T05:35:27.655Z,12.99
2023-05-12T05:38:14.712Z,13.12
2023-05-12T05:41:01.199Z,13.24
2023-05-12T05:43:47.774Z,13.34
2023-05-12T05:46:34.012Z,13.44
2023-05-12T05:49:20.460Z,13.54
2023-05-12T05:52:07.809Z,13.62
2023-05-12T05:54:54.311Z,13.72
2023-05-12T05:57:42.692Z,13.85
2023-05-12T06:00:29.502Z,13.96
2023-05-12T06:03:16.173Z,14.09
2023-05-12T06:06:03.441Z,14.18
2023-05-12T06:08:50.194Z,14.31
2023-05-12T06:11:36.514Z,14.46
2023-05-12T06:14:22.772Z,14.59
2023-05-12T06:17:09.211Z,14.74
2023-05-12T06:19:55.729Z,14.88
2023-05-12T06:22:42.384Z,15.01
2023-05-12T06:25:29.722Z,15.12
2023-05-12T06:28:15.995Z,15.26
2023-05-12T06:31:02.258Z,15.42
2023-05-12T06:33:49.731Z,15.57
2023-05-12T06:36:36.021Z,15.75
2023-05-12T06:39:22.447Z,15.89
2023-05-12T06:42:09.169Z,16.06
2023-05-12T06:45:01.719Z,16.21
2023-05-12T06:47:48.157Z,16.36
2023-05-12T06:50:34.873Z,16.48
2023-05-12T06:53:22.828Z,16.63
2023-05-12T06:56:16.909Z,16.81
2023-05-12T06:59:04.229Z,16.96
2023-05-12T07:01:50.898Z,17.12
2023-05-12T07:04:38.041Z,17.25
2023-05-12T07:07:24.740Z,17.40
2023-05-12T07:10:11.264Z,17.52
2023-05-12T07:12:57.690Z,17.63
2023-05-12T07:15:44.258Z,17.70
2023-05-12T07:18:31.989Z,17.86
2023-05-12T07:21:18.757Z,18.03
2023-05-12T07:24:06.407Z,18.20
2023-05-12T07:26:52.851Z,18.37
2023-05-12T07:29:39.269Z,18.50
2023-05-12T07:32:25.751Z,18.64
2023-05-12T07:35:12.559Z,18.78
2023-05-12T07:37:58.649Z,18.92
2023-05-12T07:40:45.414Z,19.04
2023-05-12T07:43:31.936Z,19.16
2023-05-12T07:46:18.347Z,19.26
2023-05-12T07:49:05.010Z,19.39
2023-05-12T07:51:51.857Z,19.55
2023-05-12T07:54:38.284Z,19.65
2023-05-12T07:57:24.777Z,19.81
2023-05-12T08:00:11.651Z,19.92
2023-05-12T08:03:01.422Z,20.06
2023-05-12T08:05:48.075Z,20.11
2023-05-12T08:08:34.967Z,20.27
2023-05-12T08:11:22.012Z,20.40
2023-05-12T08:14:08.476Z,20.48
2023-05-12T08:16:55.081Z,20.61
2023-05-12T08:19:41.957Z,20.69
2023-05-12T08:22:28.536Z,20.84
2023-05-12T08:25:15.396Z,20.97
2023-05-12T08:28:02.099Z,21.03
2023-05-12T08:30:48.888Z,21.14
2023-05-12T08:33:36.341Z,21.28
2023-05-12T08:36:22.970Z,21.38
2023-05-12T08:39:12.739Z,21.46
2023-05-12T08:42:22.194Z,21.54
2023-05-12T08:45:10.632Z,21.68
2023-05-12T08:47:58.667Z,21.80
2023-05-12T08:50:47.303Z,21.82
2023-05-12T08:53:36.602Z,21.82
2023-05-12T08:59:13.958Z,22.10
2023-05-12T09:02:04.540Z,22.20
2023-05-12T09:04:52.403Z,22.28
2023-05-12T09:07:43.536Z,22.26
2023-05-12T09:10:34.636Z,22.22
2023-05-12T09:13:54.932Z,22.29
2023-05-12T09:16:43.115Z,22.34
2023-05-12T09:19:30.350Z,22.28
2023-05-12T09:22:18.860Z,22.21
2023-05-12T09:25:19.330Z,22.18
2023-05-12T09:28:06.274Z,22.25
2023-05-12T09:30:52.670Z,22.35
2023-05-12T09:33:39.027Z,22.45
2023-05-12T09:36:25.891Z,22.52
2023-05-12T09:39:13.015Z,22.49
2023-05-12T09:41:59.856Z,22.45
2023-05-12T09:44:47.217Z,22.41
2023-05-12T09:47:36.278Z,22.43
2023-05-12T09:50:23.218Z,22.52
2023-05-12T09:53:10.020Z,22.56
2023-05-12T09:55:56.696Z,22.74
2023-05-12T09:58:48.461Z,22.88
2023-05-12T10:01:35.909Z,22.96
2023-05-12T10:04:22.680Z,22.95
2023-05-12T10:07:13.058Z,22.89
2023-05-12T10:10:02.432Z,22.83
2023-05-12T10:12:49.739Z,22.82
2023-05-12T10:15:36.883Z,22.85
2023-05-12T10:18:24.838Z,22.86
2023-05-12T10:21:12.992Z,22.88
2023-05-12T10:24:00.851Z,22.86
2023-05-12T10:26:47.587Z,22.85
2023-05-12T10:29:35.020Z,22.86
2023-05-12T10:32:21.634Z,22.92
2023-05-12T10:35:09.378Z,22.92
2023-05-12T10:37:56.104Z,22.85
2023-05-12T10:40:58.865Z,22.92
2023-05-12T10:43:49.571Z,23.10
2023-05-12T10:46:37.184Z,23.25
2023-05-12T10:49:33.330Z,23.26
2023-05-12T10:52:20.210Z,23.34
2023-05-12T10:55:12.574Z,23.30
2023-05-12T10:58:13.238Z,23.22
2023-05-12T11:01:07.411Z,23.16
2023-05-12T11:03:59.035Z,23.24
2023-05-12T11:06:46.928Z,23.24
2023-05-12T11:09:46.814Z,23.28
2023-05-12T11:12:43.448Z,23.30
2023-05-12T11:15:30.737Z,23.31
2023-05-12T11:18:21.790Z,23.31
2023-05-12T11:21:12.219Z,23.29
2023-05-12T11:24:00.353Z,23.29
2023-05-12T11:26:51.766Z,23.31
2023-05-12T11:29:41.392Z,23.34
2023-05-12T11:32:29.628Z,23.43
2023-05-12T11:35:18.147Z,23.53
2023-05-12T11:38:15.775Z,23.54
2023-05-12T11:41:02.116Z,23.57
2023-05-12T11:43:48.446Z,23.59
2023-05-12T11:46:35.103Z,23.60
2023-05-12T11:49:21.707Z,23.65
2023-05-12T11:52:08.157Z,23.70
2023-05-12T11:55:00.176Z,23.78
2023-05-12T11:57:56.878Z,23.94
2023-05-12T12:00:43.295Z,23.98
2023-05-12T12:03:29.589Z,24.08
2023-05-12T12:06:17.178Z,24.21
2023-05-12T12:09:03.633Z,24.29
2023-05-12T12:11:50.304Z,24.96
2023-05-12T12:14:38.201Z,25.76
2023-05-12T12:17:30.782Z,26.08
2023-05-12T12:20:18.806Z,26.29
2023-05-12T12:23:05.533Z,27.13
2023-05-12T12:25:52.096Z,27.82
2023-05-12T12:28:38.559Z,28.32
2023-05-12T12:31:24.864Z,28.74
2023-05-12T12:34:11.517Z,29.07
2023-05-12T12:36:57.761Z,29.57
2023-05-12T12:39:44.098Z,29.51
2023-05-12T12:42:31.068Z,28.87
2023-05-12T12:45:20.112Z,28.88
2023-05-12T12:48:09.167Z,29.25
2023-05-12T12:50:56.063Z,30.11
2023-05-12T12:53:45.768Z,30.93
2023-05-12T12:56:32.240Z,31.70
2023-05-12T12:59:18.695Z,32.42
2023-05-12T13:02:05.303Z,32.96
2023-05-12T13:04:52.148Z,33.15
2023-05-12T13:07:38.197Z,33.43
2023-05-12T13:10:25.990Z,33.98
2023-05-12T13:13:12.636Z,34.37
2023-05-12T13:15:58.984Z,34.75
2023-05-12T13:18:46.104Z,35.04
2023-05-12T13:21:32.588Z,35.44
2023-05-12T13:24:19.020Z,35.69
2023-05-12T13:27:08.442Z,35.88
2023-05-12T13:29:55.247Z,36.07
2023-05-12T13:32:41.810Z,36.49
2023-05-12T13:35:28.558Z,36.86
2023-05-12T13:38:15.280Z,36.98
2023-05-12T13:41:02.250Z,36.70
2023-05-12T13:43:48.857Z,37.12
2023-05-12T13:46:35.820Z,37.40
2023-05-12T13:49:22.352Z,37.83
2023-05-12T13:52:08.649Z,38.07
2023-05-12T13:54:55.247Z,38.32
2023-05-12T13:57:41.604Z,38.22
2023-05-12T14:00:29.938Z,38.32
2023-05-12T14:03:16.735Z,38.42
2023-05-12T14:06:04.035Z,38.76
2023-05-12T14:08:50.073Z,38.92
2023-05-12T14:11:37.049Z,38.08
2023-05-12T14:14:23.747Z,36.94
2023-05-12T14:17:10.269Z,37.29
2023-05-12T14:19:56.799Z,37.48
2023-05-12T14:22:43.128Z,36.18
2023-05-12T14:25:30.878Z,34.49
2023-05-12T14:28:17.884Z,35.23
2023-05-12T14:31:04.290Z,36.47
2023-05-12T14:33:50.530Z,37.42
2023-05-12T14:36:36.748Z,38.07
2023-05-12T14:39:23.010Z,37.87
2023-05-12T14:42:09.554Z,37.61
2023-05-12T14:44:56.694Z,38.14
2023-05-12T14:47:43.289Z,37.17
2023-05-12T14:50:30.038Z,37.98
2023-05-12T14:53:16.582Z,38.55
2023-05-12T14:56:02.724Z,38.49
2023-05-12T14:58:49.290Z,38.87
2023-05-12T15:01:35.781Z,39.41
2023-05-12T15:04:22.477Z,40.07
2023-05-12T15:07:09.136Z,40.48
2023-05-12T15:09:55.840Z,40.67
2023-05-12T15:12:42.366Z,40.32
2023-05-12T15:15:29.567Z,38.97
2023-05-12T15:18:16.178Z,36.71
2023-05-12T15:21:02.523Z,34.80
2023-05-12T15:23:49.270Z,33.95
2023-05-12T15:26:39.705Z,34.30
2023-05-12T15:29:27.216Z,33.27
2023-05-12T15:32:13.752Z,32.67
2023-05-12T15:35:00.048Z,32.81
2023-05-12T15:37:46.668Z,31.97
2023-05-12T15:40:33.235Z,30.92
2023-05-12T15:43:19.815Z,30.06
2023-05-12T15:46:06.645Z,29.24
2023-05-12T15:48:52.995Z,28.60
2023-05-12T15:51:39.847Z,27.90
2023-05-12T15:54:26.636Z,27.55
2023-05-12T15:57:13.803Z,28.57
2023-05-12T16:00:00.294Z,30.80
2023-05-12T16:02:47.103Z,31.63
2023-05-12T16:05:37.892Z,31.39
2023-05-12T16:08:24.381Z,31.19
2023-05-12T16:11:11.122Z,31.34
2023-05-12T16:13:57.820Z,33.30
2023-05-12T16:16:48.251Z,34.84
2023-05-12T16:19:34.910Z,35.89
2023-05-12T16:22:21.818Z,36.65
2023-05-12T16:25:08.958Z,37.19
2023-05-12T16:27:55.883Z,37.86
2023-05-12T16:30:42.493Z,38.20
2023-05-12T16:33:29.901Z,38.48
2023-05-12T16:36:17.626Z,38.56
2023-05-12T16:39:04.288Z,38.58
2023-05-12T16:41:50.920Z,38.68
2023-05-12T16:44:37.288Z,38.68
2023-05-12T16:47:24.127Z,38.51
2023-05-12T16:50:11.721Z,38.61
2023-05-12T16:52:58.356Z,39.01
2023-05-12T16:55:44.898Z,38.82
2023-05-12T16:58:31.589Z,38.50
2023-05-12T17:01:18.353Z,38.15
2023-05-12T17:04:06.830Z,37.28
2023-05-12T17:06:53.592Z,36.33
2023-05-12T17:09:40.278Z,36.38
2023-05-12T17:12:26.994Z,36.35
2023-05-12T17:15:13.454Z,36.37
2023-05-12T17:18:00.123Z,36.19
2023-05-12T17:20:46.438Z,35.68
2023-05-12T17:23:32.908Z,35.22
2023-05-12T17:26:19.294Z,35.16
2023-05-12T17:29:05.584Z,35.22
2023-05-12T17:31:51.962Z,35.07
2023-05-12T17:34:38.566Z,34.63
2023-05-12T17:37:25.463Z,33.09
2023-05-12T17:40:18.187Z,30.98
2023-05-12T17:43:04.789Z,29.33
2023-05-12T17:45:51.591Z,28.16
2023-05-12T17:48:38.745Z,27.06
2023-05-12T17:51:25.775Z,26.06
2023-05-12T17:54:12.508Z,25.20
2023-05-12T17:56:59.370Z,24.43
2023-05-12T17:59:45.646Z,23.78
2023-05-12T18:02:32.202Z,23.25
2023-05-12T18:05:18.631Z,22.84
2023-05-12T18:08:06.655Z,22.43
2023-05-12T18:10:52.942Z,22.06
2023-05-12T18:13:39.458Z,21.71
2023-05-12T18:16:29.365Z,21.40
2023-05-12T18:19:16.315Z,21.01
2023-05-12T18:22:02.818Z,20.83
2023-05-12T18:24:50.896Z,20.58
2023-05-12T18:27:37.450Z,20.33
2023-05-12T18:30:23.772Z,20.09
2023-05-12T18:33:10.522Z,19.86
2023-05-12T18:35:57.147Z,19.64
2023-05-12T18:38:44.364Z,19.46
2023-05-12T18:41:31.487Z,19.31
2023-05-12T18:44:17.758Z,19.14
2023-05-12T18:47:04.564Z,18.98
2023-05-12T18:49:51.349Z,18.80
2023-05-12T18:52:37.985Z,18.65
2023-05-12T18:55:24.637Z,18.51
2023-05-12T18:58:11.327Z,18.37
2023-05-12T19:00:57.510Z,18.18
2023-05-12T19:03:44.132Z,18.01
2023-05-12T19:06:31.181Z,17.91
2023-05-12T19:09:17.511Z,17.75
2023-05-12T19:12:06.136Z,17.61
2023-05-12T19:14:52.626Z,17.48
2023-05-12T19:17:39.101Z,17.38
2023-05-12T19:20:25.838Z,17.26
2023-05-12T19:23:12.198Z,17.16
2023-05-12T19:25:59.187Z,17.05
2023-05-12T19:28:45.739Z,16.90
2023-05-12T19:31:34.202Z,16.81
2023-05-12T19:34:21.585Z,16.66
2023-05-12T19:37:08.583Z,16.52
2023-05-12T19:39:54.957Z,16.44
2023-05-12T19:42:42.497Z,16.32
2023-05-12T19:45:29.220Z,16.21
2023-05-12T19:48:15.795Z,16.04
2023-05-12T19:51:02.185Z,15.92
2023-05-12T19:53:48.315Z,15.79
2023-05-12T19:56:34.929Z,15.63
2023-05-12T19:59:21.244Z,15.52
2023-05-12T20:02:11.049Z,15.37
2023-05-12T20:05:01.527Z,15.23
2023-05-12T20:07:48.697Z,15.12
2023-05-12T20:10:35.334Z,15.01
2023-05-12T20:13:21.687Z,14.88
2023-05-12T20:16:08.056Z,14.75
2023-05-12T20:18:54.871Z,14.65
2023-05-12T20:21:41.680Z,14.56
2023-05-12T20:24:28.456Z,14.46
2023-05-12T20:27:15.074Z,14.29
2023-05-12T20:30:01.691Z,14.22
2023-05-12T20:32:50.612Z,14.13
2023-05-12T20:35:37.100Z,14.01
2023-05-12T20:38:24.397Z,13.86
2023-05-12T20:41:10.727Z,13.72
2023-05-12T20:43:57.117Z,13.60
2023-05-12T20:46:43.608Z,13.44
2023-05-12T20:49:30.385Z,13.34
2023-05-12T20:52:16.652Z,13.26
2023-05-12T20:55:03.558Z,13.21
2023-05-12T20:57:50.068Z,13.17
2023-05-12T21:00:37.225Z,13.08
2023-05-12T21:03:24.381Z,13.01
2023-05-12T21:06:12.301Z,12.93
2023-05-12T21:08:58.743Z,12.83
2023-05-12T21:11:45.463Z,12.77
2023-05-12T21:14:44.174Z,12.74
2023-05-12T21:17:30.344Z,12.61
2023-05-12T21:20:16.884Z,12.48
2023-05-12T21:23:03.438Z,12.42
2023-05-12T21:25:53.188Z,12.35
2023-05-12T21:28:39.658Z,12.31
2023-05-12T21:31:26.395Z,12.35
2023-05-12T21:34:12.579Z,12.30
2023-05-12T21:37:00.067Z,12.24
2023-05-12T21:39:46.365Z,12.18
2023-05-12T21:42:32.818Z,12.07
2023-05-12T21:45:21.481Z,12.03
2023-05-12T21:48:08.587Z,11.90
2023-05-12T21:51:09.166Z,11.79
2023-05-12T21:53:56.127Z,11.69
2023-05-12T21:56:45.053Z,11.60
2023-05-12T21:59:33.111Z,11.55
2023-05-12T22:02:26.884Z,11.53
2023-05-12T22:05:14.653Z,11.58
2023-05-12T22:08:00.870Z,11.61
2023-05-12T22:10:49.887Z,11.52
2023-05-12T22:13:37.478Z,11.43
2023-05-12T22:16:31.149Z,11.30
2023-05-12T22:19:25.206Z,11.16
2023-05-12T22:22:12.727Z,11.04
2023-05-12T22:24:59.707Z,10.95
2023-05-12T22:27:46.277Z,10.85
2023-05-12T22:30:33.193Z,10.83
2023-05-12T22:33:19.590Z,10.79
2023-05-12T22:36:07.918Z,10.78
2023-05-12T22:38:55.386Z,10.76
2023-05-12T22:41:44.637Z,10.75
2023-05-12T22:44:31.377Z,10.76
2023-05-12T22:47:17.997Z,10.80
2023-05-12T22:50:06.779Z,10.75
2023-05-12T22:52:57.475Z,10.67
2023-05-12T22:55:47.254Z,10.63
2023-05-12T22:58:33.704Z,10.54
2023-05-12T23:01:19.989Z,10.42
2023-05-12T23:04:06.799Z,10.31
2023-05-12T23:06:53.147Z,10.23
2023-05-12T23:09:39.570Z,10.12
2023-05-12T23:12:25.976Z,10.05
2023-05-12T23:15:12.359Z,9.99
2023-05-12T23:17:58.744Z,9.94
2023-05-12T23:20:45.825Z,9.92
2023-05-12T23:23:33.239Z,9.88
2023-05-12T23:26:19.831Z,9.85
2023-05-12T23:29:06.550Z,9.83
2023-05-12T23:31:52.776Z,9.84
2023-05-12T23:34:40.620Z,9.80
2023-05-12T23:37:27.092Z,9.71
2023-05-12T23:40:13.281Z,9.61
2023-05-12T23:42:59.904Z,9.56
2023-05-12T23:45:46.625Z,9.53
2023-05-12T23:48:33.249Z,9.52
2023-05-12T23:51:19.934Z,9.57
2023-05-12T23:54:06.573Z,9.57
2023-05-12T23:56:52.748Z,9.56
2023-05-12T23:59:39.318Z,9.50
